sensor_id;sensor_type;location;lat;lon;timestamp;P1;durP1;ratioP1;P2;durP2;ratioP2
70369;SDS011;57790;51.356;-2.906;2023-11-18T00:00:53;2.47;;;0.43;;
70369;SDS011;57790;51.356;-2.906;2023-11-18T00:03:53;2.95;;;0.60;;
70369;SDS011;57790;51.356;-2.906;2023-11-18T00:06:53;3.43;;;0.80;;
70369;SDS011;57790;51.356;-2.906;2023-11-18T00:09:54;3.03;;;0.70;;
70369;SDS011;57790;51.356;-2.906;2023-11-18T00:12:55;2.30;;;0.70;;
70369;SDS011;57790;51.356;-2.906;2023-11-18T00:15:55;2.30;;;0.50;;
70369;SDS011;57790;51.356;-2.906;2023-11-18T00:18:56;3.57;;;0.50;;
70369;SDS011;57790;51.356;-2.906;2023-11-18T00:21:58;3.00;;;0.60;;
70369;SDS011;57790;51.356;-2.906;2023-11-18T00:24:59;2.30;;;0.50;;
70369;SDS011;57790;51.356;-2.906;2023-11-18T00:27:59;4.30;;;0.70;;
70369;SDS011;57790;51.356;-2.906;2023-11-18T00:31:00;3.00;;;0.40;;
70369;SDS011;57790;51.356;-2.906;2023-11-18T00:34:00;3.03;;;0.60;;
70369;SDS011;57790;51.356;-2.906;2023-11-18T00:37:01;4.20;;;0.57;;
70369;SDS011;57790;51.356;-2.906;2023-11-18T00:40:01;4.53;;;0.50;;
70369;SDS011;57790;51.356;-2.906;2023-11-18T00:43:03;1.93;;;0.30;;
70369;SDS011;57790;51.356;-2.906;2023-11-18T00:46:03;3.15;;;0.60;;
70369;SDS011;57790;51.356;-2.906;2023-11-18T00:49:05;1.63;;;0.38;;
70369;SDS011;57790;51.356;-2.906;2023-11-18T00:52:05;1.63;;;0.40;;
70369;SDS011;57790;51.356;-2.906;2023-11-18T00:55:06;2.50;;;0.67;;
70369;SDS011;57790;51.356;-2.906;2023-11-18T00:58:08;1.95;;;0.40;;
70369;SDS011;57790;51.356;-2.906;2023-11-18T01:01:08;1.67;;;0.37;;
70369;SDS011;57790;51.356;-2.906;2023-11-18T01:04:10;1.52;;;0.38;;
70369;SDS011;57790;51.356;-2.906;2023-11-18T01:07:10;2.60;;;0.30;;
70369;SDS011;57790;51.356;-2.906;2023-11-18T01:10:11;2.77;;;0.40;;
70369;SDS011;57790;51.356;-2.906;2023-11-18T01:13:12;2.60;;;0.30;;
70369;SDS011;57790;51.356;-2.906;2023-11-18T01:16:12;1.53;;;0.40;;
70369;SDS011;57790;51.356;-2.906;2023-11-18T01:19:14;1.58;;;0.20;;
70369;SDS011;57790;51.356;-2.906;2023-11-18T01:22:15;1.63;;;0.40;;
70369;SDS011;57790;51.356;-2.906;2023-11-18T01:25:15;2.00;;;0.40;;
70369;SDS011;57790;51.356;-2.906;2023-11-18T01:28:19;1.63;;;0.30;;
70369;SDS011;57790;51.356;-2.906;2023-11-18T01:31:19;1.48;;;0.40;;
70369;SDS011;57790;51.356;-2.906;2023-11-18T01:34:19;2.63;;;0.40;;
70369;SDS011;57790;51.356;-2.906;2023-11-18T01:37:21;3.15;;;0.40;;
70369;SDS011;57790;51.356;-2.906;2023-11-18T01:40:23;4.53;;;0.57;;
70369;SDS011;57790;51.356;-2.906;2023-11-18T01:43:23;1.70;;;0.20;;
70369;SDS011;57790;51.356;-2.906;2023-11-18T01:46:24;2.53;;;0.40;;
70369;SDS011;57790;51.356;-2.906;2023-11-18T01:49:25;1.25;;;0.32;;
70369;SDS011;57790;51.356;-2.906;2023-11-18T01:52:30;1.17;;;0.20;;
70369;SDS011;57790;51.356;-2.906;2023-11-18T01:55:30;1.48;;;0.32;;
70369;SDS011;57790;51.356;-2.906;2023-11-18T01:58:32;0.90;;;0.30;;
70369;SDS011;57790;51.356;-2.906;2023-11-18T02:01:33;1.65;;;0.30;;
70369;SDS011;57790;51.356;-2.906;2023-11-18T02:04:35;1.20;;;0.20;;
70369;SDS011;57790;51.356;-2.906;2023-11-18T02:07:35;0.63;;;0.23;;
70369;SDS011;57790;51.356;-2.906;2023-11-18T02:10:38;2.42;;;0.30;;
70369;SDS011;57790;51.356;-2.906;2023-11-18T02:13:47;1.60;;;0.30;;
70369;SDS011;57790;51.356;-2.906;2023-11-18T02:16:50;1.93;;;0.27;;
70369;SDS011;57790;51.356;-2.906;2023-11-18T02:19:56;1.50;;;0.30;;
70369;SDS011;57790;51.356;-2.906;2023-11-18T02:22:57;1.63;;;0.40;;
70369;SDS011;57790;51.356;-2.906;2023-11-18T02:25:58;2.13;;;0.30;;
70369;SDS011;57790;51.356;-2.906;2023-11-18T02:29:01;1.48;;;0.40;;
70369;SDS011;57790;51.356;-2.906;2023-11-18T02:35:37;1.27;;;0.30;;
70369;SDS011;57790;51.356;-2.906;2023-11-18T02:38:44;1.40;;;0.23;;
70369;SDS011;57790;51.356;-2.906;2023-11-18T02:41:51;0.65;;;0.30;;
70369;SDS011;57790;51.356;-2.906;2023-11-18T02:44:52;0.90;;;0.32;;
70369;SDS011;57790;51.356;-2.906;2023-11-18T02:47:59;1.42;;;0.30;;
70369;SDS011;57790;51.356;-2.906;2023-11-18T02:51:00;1.88;;;0.30;;
70369;SDS011;57790;51.356;-2.906;2023-11-18T02:54:01;2.00;;;0.30;;
70369;SDS011;57790;51.356;-2.906;2023-11-18T02:57:02;1.63;;;0.30;;
70369;SDS011;57790;51.356;-2.906;2023-11-18T03:00:03;2.10;;;0.30;;
70369;SDS011;57790;51.356;-2.906;2023-11-18T03:03:11;1.27;;;0.30;;
70369;SDS011;57790;51.356;-2.906;2023-11-18T03:06:12;0.87;;;0.20;;
70369;SDS011;57790;51.356;-2.906;2023-11-18T03:09:12;1.90;;;0.30;;
70369;SDS011;57790;51.356;-2.906;2023-11-18T03:12:13;0.70;;;0.30;;
70369;SDS011;57790;51.356;-2.906;2023-11-18T03:15:14;1.73;;;0.30;;
70369;SDS011;57790;51.356;-2.906;2023-11-18T03:18:16;3.05;;;0.43;;
70369;SDS011;57790;51.356;-2.906;2023-11-18T03:21:17;2.17;;;0.37;;
70369;SDS011;57790;51.356;-2.906;2023-11-18T03:24:19;1.40;;;0.38;;
70369;SDS011;57790;51.356;-2.906;2023-11-18T03:27:20;1.17;;;0.32;;
70369;SDS011;57790;51.356;-2.906;2023-11-18T03:30:23;1.60;;;0.45;;
70369;SDS011;57790;51.356;-2.906;2023-11-18T03:33:23;1.37;;;0.30;;
70369;SDS011;57790;51.356;-2.906;2023-11-18T03:36:23;0.80;;;0.30;;
70369;SDS011;57790;51.356;-2.906;2023-11-18T03:39:24;2.20;;;0.30;;
70369;SDS011;57790;51.356;-2.906;2023-11-18T03:42:25;1.60;;;0.43;;
70369;SDS011;57790;51.356;-2.906;2023-11-18T03:45:25;0.50;;;0.20;;
70369;SDS011;57790;51.356;-2.906;2023-11-18T03:48:26;1.23;;;0.38;;
70369;SDS011;57790;51.356;-2.906;2023-11-18T03:51:27;2.53;;;0.30;;
70369;SDS011;57790;51.356;-2.906;2023-11-18T03:54:28;1.15;;;0.30;;
70369;SDS011;57790;51.356;-2.906;2023-11-18T03:57:28;1.73;;;0.30;;
70369;SDS011;57790;51.356;-2.906;2023-11-18T04:00:29;1.20;;;0.30;;
70369;SDS011;57790;51.356;-2.906;2023-11-18T04:03:29;1.20;;;0.30;;
70369;SDS011;57790;51.356;-2.906;2023-11-18T04:06:31;1.75;;;0.30;;
70369;SDS011;57790;51.356;-2.906;2023-11-18T04:09:32;1.30;;;0.30;;
70369;SDS011;57790;51.356;-2.906;2023-11-18T04:12:33;0.70;;;0.30;;
70369;SDS011;57790;51.356;-2.906;2023-11-18T04:15:33;0.80;;;0.30;;
70369;SDS011;57790;51.356;-2.906;2023-11-18T04:18:35;0.80;;;0.30;;
70369;SDS011;57790;51.356;-2.906;2023-11-18T04:21:35;0.93;;;0.33;;
70369;SDS011;57790;51.356;-2.906;2023-11-18T04:24:36;1.97;;;0.37;;
70369;SDS011;57790;51.356;-2.906;2023-11-18T04:27:39;2.07;;;0.40;;
70369;SDS011;57790;51.356;-2.906;2023-11-18T04:30:39;1.63;;;0.40;;
70369;SDS011;57790;51.356;-2.906;2023-11-18T04:33:40;2.70;;;0.40;;
70369;SDS011;57790;51.356;-2.906;2023-11-18T04:36:41;2.40;;;0.30;;
70369;SDS011;57790;51.356;-2.906;2023-11-18T04:39:41;2.60;;;0.68;;
70369;SDS011;57790;51.356;-2.906;2023-11-18T04:42:42;2.30;;;0.40;;
70369;SDS011;57790;51.356;-2.906;2023-11-18T04:45:42;2.17;;;0.50;;
70369;SDS011;57790;51.356;-2.906;2023-11-18T04:48:42;3.63;;;0.68;;
70369;SDS011;57790;51.356;-2.906;2023-11-18T04:51:43;1.80;;;0.40;;
70369;SDS011;57790;51.356;-2.906;2023-11-18T04:54:43;1.70;;;0.33;;
70369;SDS011;57790;51.356;-2.906;2023-11-18T04:57:44;2.17;;;0.60;;
70369;SDS011;57790;51.356;-2.906;2023-11-18T05:00:44;1.73;;;0.40;;
70369;SDS011;57790;51.356;-2.906;2023-11-18T05:03:44;2.97;;;0.60;;
70369;SDS011;57790;51.356;-2.906;2023-11-18T05:06:45;1.57;;;0.43;;
70369;SDS011;57790;51.356;-2.906;2023-11-18T05:09:45;2.00;;;0.40;;
70369;SDS011;57790;51.356;-2.906;2023-11-18T05:12:46;3.13;;;0.40;;
70369;SDS011;57790;51.356;-2.906;2023-11-18T05:15:55;1.67;;;0.30;;
70369;SDS011;57790;51.356;-2.906;2023-11-18T05:18:56;1.60;;;0.57;;
70369;SDS011;57790;51.356;-2.906;2023-11-18T05:21:56;3.37;;;0.40;;
70369;SDS011;57790;51.356;-2.906;2023-11-18T05:24:57;2.77;;;0.40;;
70369;SDS011;57790;51.356;-2.906;2023-11-18T05:27:57;1.85;;;0.50;;
70369;SDS011;57790;51.356;-2.906;2023-11-18T05:30:58;2.20;;;0.40;;
70369;SDS011;57790;51.356;-2.906;2023-11-18T05:34:01;1.75;;;0.40;;
70369;SDS011;57790;51.356;-2.906;2023-11-18T05:37:03;2.40;;;0.40;;
70369;SDS011;57790;51.356;-2.906;2023-11-18T05:40:04;2.00;;;0.37;;
70369;SDS011;57790;51.356;-2.906;2023-11-18T05:43:08;1.38;;;0.47;;
70369;SDS011;57790;51.356;-2.906;2023-11-18T05:46:16;2.30;;;0.40;;
70369;SDS011;57790;51.356;-2.906;2023-11-18T05:49:24;1.93;;;0.30;;
70369;SDS011;57790;51.356;-2.906;2023-11-18T05:52:25;3.38;;;0.40;;
70369;SDS011;57790;51.356;-2.906;2023-11-18T05:55:25;1.95;;;0.40;;
70369;SDS011;57790;51.356;-2.906;2023-11-18T05:58:26;3.33;;;0.40;;
70369;SDS011;57790;51.356;-2.906;2023-11-18T06:01:29;4.20;;;0.80;;
70369;SDS011;57790;51.356;-2.906;2023-11-18T06:04:30;2.90;;;0.50;;
70369;SDS011;57790;51.356;-2.906;2023-11-18T06:07:31;4.85;;;0.63;;
70369;SDS011;57790;51.356;-2.906;2023-11-18T06:10:31;2.07;;;0.50;;
70369;SDS011;57790;51.356;-2.906;2023-11-18T06:13:32;2.40;;;0.53;;
70369;SDS011;57790;51.356;-2.906;2023-11-18T06:16:32;3.20;;;0.60;;
70369;SDS011;57790;51.356;-2.906;2023-11-18T06:19:33;4.03;;;0.50;;
70369;SDS011;57790;51.356;-2.906;2023-11-18T06:22:34;3.43;;;0.50;;
70369;SDS011;57790;51.356;-2.906;2023-11-18T06:25:34;2.42;;;0.45;;
70369;SDS011;57790;51.356;-2.906;2023-11-18T06:28:36;2.57;;;0.70;;
70369;SDS011;57790;51.356;-2.906;2023-11-18T06:31:40;4.80;;;0.40;;
70369;SDS011;57790;51.356;-2.906;2023-11-18T06:34:40;2.97;;;0.60;;
70369;SDS011;57790;51.356;-2.906;2023-11-18T06:37:41;4.13;;;0.60;;
70369;SDS011;57790;51.356;-2.906;2023-11-18T06:40:42;6.83;;;0.70;;
70369;SDS011;57790;51.356;-2.906;2023-11-18T06:43:43;4.07;;;0.57;;
70369;SDS011;57790;51.356;-2.906;2023-11-18T06:46:56;3.03;;;0.60;;
70369;SDS011;57790;51.356;-2.906;2023-11-18T06:49:56;2.40;;;0.47;;
70369;SDS011;57790;51.356;-2.906;2023-11-18T06:52:57;2.30;;;0.40;;
70369;SDS011;57790;51.356;-2.906;2023-11-18T06:55:59;2.50;;;0.50;;
70369;SDS011;57790;51.356;-2.906;2023-11-18T06:58:59;2.83;;;0.57;;
70369;SDS011;57790;51.356;-2.906;2023-11-18T07:02:00;1.27;;;0.40;;
70369;SDS011;57790;51.356;-2.906;2023-11-18T07:05:00;1.77;;;0.40;;
70369;SDS011;57790;51.356;-2.906;2023-11-18T07:08:01;1.03;;;0.30;;
70369;SDS011;57790;51.356;-2.906;2023-11-18T07:11:03;1.13;;;0.40;;
70369;SDS011;57790;51.356;-2.906;2023-11-18T07:14:03;3.30;;;0.40;;
70369;SDS011;57790;51.356;-2.906;2023-11-18T07:17:04;1.37;;;0.40;;
70369;SDS011;57790;51.356;-2.906;2023-11-18T07:20:04;2.20;;;0.40;;
70369;SDS011;57790;51.356;-2.906;2023-11-18T07:23:05;1.05;;;0.30;;
70369;SDS011;57790;51.356;-2.906;2023-11-18T07:26:08;1.10;;;0.30;;
70369;SDS011;57790;51.356;-2.906;2023-11-18T07:29:13;1.40;;;0.35;;
70369;SDS011;57790;51.356;-2.906;2023-11-18T07:32:14;2.97;;;0.30;;
70369;SDS011;57790;51.356;-2.906;2023-11-18T07:35:14;1.70;;;0.33;;
70369;SDS011;57790;51.356;-2.906;2023-11-18T07:38:15;2.07;;;0.30;;
70369;SDS011;57790;51.356;-2.906;2023-11-18T07:41:16;0.80;;;0.30;;
70369;SDS011;57790;51.356;-2.906;2023-11-18T07:44:27;1.58;;;0.40;;
70369;SDS011;57790;51.356;-2.906;2023-11-18T07:47:27;1.60;;;0.40;;
70369;SDS011;57790;51.356;-2.906;2023-11-18T07:50:28;0.73;;;0.30;;
70369;SDS011;57790;51.356;-2.906;2023-11-18T07:53:28;2.57;;;0.30;;
70369;SDS011;57790;51.356;-2.906;2023-11-18T07:56:29;1.75;;;0.40;;
70369;SDS011;57790;51.356;-2.906;2023-11-18T07:59:32;1.05;;;0.40;;
70369;SDS011;57790;51.356;-2.906;2023-11-18T08:02:32;2.03;;;0.40;;
70369;SDS011;57790;51.356;-2.906;2023-11-18T08:05:33;3.37;;;0.40;;
70369;SDS011;57790;51.356;-2.906;2023-11-18T08:08:33;0.83;;;0.30;;
70369;SDS011;57790;51.356;-2.906;2023-11-18T08:11:34;0.60;;;0.30;;
70369;SDS011;57790;51.356;-2.906;2023-11-18T08:14:35;2.45;;;0.40;;
70369;SDS011;57790;51.356;-2.906;2023-11-18T08:17:36;0.90;;;0.40;;
70369;SDS011;57790;51.356;-2.906;2023-11-18T08:20:36;0.75;;;0.30;;
70369;SDS011;57790;51.356;-2.906;2023-11-18T08:23:37;1.27;;;0.30;;
70369;SDS011;57790;51.356;-2.906;2023-11-18T08:26:37;1.10;;;0.30;;
70369;SDS011;57790;51.356;-2.906;2023-11-18T08:29:39;1.38;;;0.30;;
70369;SDS011;57790;51.356;-2.906;2023-11-18T08:32:39;1.23;;;0.30;;
70369;SDS011;57790;51.356;-2.906;2023-11-18T08:35:43;1.30;;;0.40;;
70369;SDS011;57790;51.356;-2.906;2023-11-18T08:38:44;1.53;;;0.30;;
70369;SDS011;57790;51.356;-2.906;2023-11-18T08:41:48;2.53;;;0.63;;
70369;SDS011;57790;51.356;-2.906;2023-11-18T08:44:50;2.38;;;0.65;;
70369;SDS011;57790;51.356;-2.906;2023-11-18T08:47:51;4.90;;;0.90;;
70369;SDS011;57790;51.356;-2.906;2023-11-18T08:50:53;5.03;;;1.10;;
70369;SDS011;57790;51.356;-2.906;2023-11-18T08:53:53;3.40;;;0.80;;
70369;SDS011;57790;51.356;-2.906;2023-11-18T08:56:54;4.57;;;1.00;;
70369;SDS011;57790;51.356;-2.906;2023-11-18T08:59:55;4.60;;;1.20;;
70369;SDS011;57790;51.356;-2.906;2023-11-18T09:02:58;5.10;;;1.13;;
70369;SDS011;57790;51.356;-2.906;2023-11-18T09:06:04;3.42;;;0.98;;
70369;SDS011;57790;51.356;-2.906;2023-11-18T09:09:06;4.53;;;1.27;;
70369;SDS011;57790;51.356;-2.906;2023-11-18T09:12:11;5.05;;;1.20;;
70369;SDS011;57790;51.356;-2.906;2023-11-18T09:15:12;5.60;;;1.35;;
70369;SDS011;57790;51.356;-2.906;2023-11-18T09:18:22;5.20;;;1.10;;
70369;SDS011;57790;51.356;-2.906;2023-11-18T09:21:25;4.45;;;1.10;;
70369;SDS011;57790;51.356;-2.906;2023-11-18T09:24:29;3.07;;;0.90;;
70369;SDS011;57790;51.356;-2.906;2023-11-18T09:27:30;5.28;;;1.23;;
70369;SDS011;57790;51.356;-2.906;2023-11-18T09:30:32;4.85;;;1.30;;
70369;SDS011;57790;51.356;-2.906;2023-11-18T09:33:33;5.28;;;1.35;;
70369;SDS011;57790;51.356;-2.906;2023-11-18T09:36:34;3.80;;;1.17;;
70369;SDS011;57790;51.356;-2.906;2023-11-18T09:39:34;5.73;;;1.17;;
70369;SDS011;57790;51.356;-2.906;2023-11-18T09:42:38;4.63;;;1.33;;
70369;SDS011;57790;51.356;-2.906;2023-11-18T09:45:39;4.40;;;1.13;;
70369;SDS011;57790;51.356;-2.906;2023-11-18T09:48:49;5.40;;;1.33;;
70369;SDS011;57790;51.356;-2.906;2023-11-18T09:51:59;5.20;;;1.50;;
70369;SDS011;57790;51.356;-2.906;2023-11-18T09:55:08;6.88;;;1.50;;
70369;SDS011;57790;51.356;-2.906;2023-11-18T09:58:19;4.47;;;1.20;;
70369;SDS011;57790;51.356;-2.906;2023-11-18T10:01:24;5.10;;;1.55;;
70369;SDS011;57790;51.356;-2.906;2023-11-18T10:04:27;7.20;;;1.60;;
70369;SDS011;57790;51.356;-2.906;2023-11-18T10:07:28;6.22;;;1.45;;
70369;SDS011;57790;51.356;-2.906;2023-11-18T10:10:32;4.93;;;1.20;;
70369;SDS011;57790;51.356;-2.906;2023-11-18T10:13:36;5.32;;;1.50;;
70369;SDS011;57790;51.356;-2.906;2023-11-18T10:16:40;5.85;;;1.52;;
70369;SDS011;57790;51.356;-2.906;2023-11-18T10:19:54;4.35;;;1.30;;
70369;SDS011;57790;51.356;-2.906;2023-11-18T10:23:06;5.55;;;1.65;;
70369;SDS011;57790;51.356;-2.906;2023-11-18T10:26:10;5.10;;;1.37;;
70369;SDS011;57790;51.356;-2.906;2023-11-18T10:29:10;4.53;;;1.20;;
70369;SDS011;57790;51.356;-2.906;2023-11-18T10:32:13;5.13;;;1.50;;
70369;SDS011;57790;51.356;-2.906;2023-11-18T10:35:19;5.15;;;1.25;;
70369;SDS011;57790;51.356;-2.906;2023-11-18T10:38:21;5.38;;;1.55;;
70369;SDS011;57790;51.356;-2.906;2023-11-18T10:41:25;5.22;;;1.40;;
70369;SDS011;57790;51.356;-2.906;2023-11-18T10:44:25;6.47;;;1.30;;
70369;SDS011;57790;51.356;-2.906;2023-11-18T10:47:26;5.60;;;1.50;;
70369;SDS011;57790;51.356;-2.906;2023-11-18T10:50:27;6.07;;;1.42;;
70369;SDS011;57790;51.356;-2.906;2023-11-18T10:53:32;6.35;;;1.55;;
70369;SDS011;57790;51.356;-2.906;2023-11-18T10:56:33;5.97;;;1.60;;
70369;SDS011;57790;51.356;-2.906;2023-11-18T10:59:34;7.07;;;1.50;;
70369;SDS011;57790;51.356;-2.906;2023-11-18T11:02:36;6.70;;;1.70;;
70369;SDS011;57790;51.356;-2.906;2023-11-18T11:05:39;7.07;;;1.92;;
70369;SDS011;57790;51.356;-2.906;2023-11-18T11:08:42;7.38;;;1.90;;
70369;SDS011;57790;51.356;-2.906;2023-11-18T11:11:45;4.90;;;1.23;;
70369;SDS011;57790;51.356;-2.906;2023-11-18T11:15:12;7.40;;;2.08;;
70369;SDS011;57790;51.356;-2.906;2023-11-18T11:18:21;7.93;;;1.70;;
70369;SDS011;57790;51.356;-2.906;2023-11-18T11:21:28;8.65;;;1.90;;
70369;SDS011;57790;51.356;-2.906;2023-11-18T11:24:37;11.87;;;2.00;;
70369;SDS011;57790;51.356;-2.906;2023-11-18T11:27:46;10.18;;;1.48;;
70369;SDS011;57790;51.356;-2.906;2023-11-18T11:31:12;8.52;;;1.80;;
70369;SDS011;57790;51.356;-2.906;2023-11-18T11:34:17;9.88;;;1.65;;
70369;SDS011;57790;51.356;-2.906;2023-11-18T11:37:24;11.80;;;2.20;;
70369;SDS011;57790;51.356;-2.906;2023-11-18T11:40:26;10.43;;;1.70;;
70369;SDS011;57790;51.356;-2.906;2023-11-18T11:43:29;12.85;;;1.80;;
70369;SDS011;57790;51.356;-2.906;2023-11-18T11:46:30;9.50;;;1.90;;
70369;SDS011;57790;51.356;-2.906;2023-11-18T11:49:36;10.40;;;1.52;;
70369;SDS011;57790;51.356;-2.906;2023-11-18T11:52:45;10.77;;;1.80;;
70369;SDS011;57790;51.356;-2.906;2023-11-18T11:55:54;9.65;;;1.77;;
70369;SDS011;57790;51.356;-2.906;2023-11-18T11:59:05;12.25;;;2.15;;
70369;SDS011;57790;51.356;-2.906;2023-11-18T12:02:05;10.00;;;1.80;;
70369;SDS011;57790;51.356;-2.906;2023-11-18T12:05:07;8.60;;;1.60;;
70369;SDS011;57790;51.356;-2.906;2023-11-18T12:08:08;8.17;;;1.37;;
70369;SDS011;57790;51.356;-2.906;2023-11-18T12:11:13;8.75;;;1.45;;
70369;SDS011;57790;51.356;-2.906;2023-11-18T12:14:15;8.10;;;1.98;;
70369;SDS011;57790;51.356;-2.906;2023-11-18T12:17:22;8.80;;;1.43;;
70369;SDS011;57790;51.356;-2.906;2023-11-18T12:20:42;10.32;;;1.63;;
70369;SDS011;57790;51.356;-2.906;2023-11-18T12:24:14;9.35;;;1.40;;
70369;SDS011;57790;51.356;-2.906;2023-11-18T12:30:42;8.88;;;1.88;;
70369;SDS011;57790;51.356;-2.906;2023-11-18T12:37:17;9.75;;;1.50;;
70369;SDS011;57790;51.356;-2.906;2023-11-18T12:41:17;9.88;;;1.83;;
70369;SDS011;57790;51.356;-2.906;2023-11-18T12:47:22;6.50;;;1.35;;
70369;SDS011;57790;51.356;-2.906;2023-11-18T12:50:28;10.70;;;1.87;;
70369;SDS011;57790;51.356;-2.906;2023-11-18T12:53:32;9.18;;;1.45;;
70369;SDS011;57790;51.356;-2.906;2023-11-18T12:56:35;8.90;;;1.63;;
70369;SDS011;57790;51.356;-2.906;2023-11-18T12:59:36;9.02;;;1.40;;
70369;SDS011;57790;51.356;-2.906;2023-11-18T13:02:37;8.97;;;1.30;;
70369;SDS011;57790;51.356;-2.906;2023-11-18T13:05:39;7.57;;;1.15;;
70369;SDS011;57790;51.356;-2.906;2023-11-18T13:08:40;9.80;;;1.50;;
70369;SDS011;57790;51.356;-2.906;2023-11-18T13:11:40;9.50;;;1.90;;
70369;SDS011;57790;51.356;-2.906;2023-11-18T13:14:42;7.78;;;1.25;;
70369;SDS011;57790;51.356;-2.906;2023-11-18T13:18:03;10.95;;;1.60;;
70369;SDS011;57790;51.356;-2.906;2023-11-18T13:21:07;10.25;;;1.42;;
70369;SDS011;57790;51.356;-2.906;2023-11-18T13:24:07;9.03;;;1.47;;
70369;SDS011;57790;51.356;-2.906;2023-11-18T13:27:08;7.55;;;1.35;;
70369;SDS011;57790;51.356;-2.906;2023-11-18T13:30:09;8.70;;;1.20;;
70369;SDS011;57790;51.356;-2.906;2023-11-18T13:33:13;10.85;;;1.48;;
70369;SDS011;57790;51.356;-2.906;2023-11-18T13:36:13;8.17;;;1.73;;
70369;SDS011;57790;51.356;-2.906;2023-11-18T13:39:18;9.52;;;1.45;;
70369;SDS011;57790;51.356;-2.906;2023-11-18T13:42:20;12.10;;;1.73;;
70369;SDS011;57790;51.356;-2.906;2023-11-18T13:45:22;12.77;;;1.67;;
70369;SDS011;57790;51.356;-2.906;2023-11-18T13:48:23;11.52;;;1.63;;
70369;SDS011;57790;51.356;-2.906;2023-11-18T13:51:23;9.87;;;1.50;;
70369;SDS011;57790;51.356;-2.906;2023-11-18T13:54:24;11.70;;;1.63;;
70369;SDS011;57790;51.356;-2.906;2023-11-18T13:57:25;8.83;;;1.47;;
70369;SDS011;57790;51.356;-2.906;2023-11-18T14:00:26;8.67;;;1.37;;
70369;SDS011;57790;51.356;-2.906;2023-11-18T14:03:27;10.20;;;1.38;;
70369;SDS011;57790;51.356;-2.906;2023-11-18T14:06:28;11.30;;;1.55;;
70369;SDS011;57790;51.356;-2.906;2023-11-18T14:09:28;11.23;;;1.47;;
70369;SDS011;57790;51.356;-2.906;2023-11-18T14:12:30;10.38;;;1.60;;
70369;SDS011;57790;51.356;-2.906;2023-11-18T14:15:30;11.03;;;1.80;;
70369;SDS011;57790;51.356;-2.906;2023-11-18T14:18:30;10.60;;;1.50;;
70369;SDS011;57790;51.356;-2.906;2023-11-18T14:21:31;9.57;;;1.50;;
70369;SDS011;57790;51.356;-2.906;2023-11-18T14:24:35;9.23;;;1.50;;
70369;SDS011;57790;51.356;-2.906;2023-11-18T14:27:35;8.45;;;1.20;;
70369;SDS011;57790;51.356;-2.906;2023-11-18T14:30:37;9.38;;;1.10;;
70369;SDS011;57790;51.356;-2.906;2023-11-18T14:33:37;8.43;;;1.40;;
70369;SDS011;57790;51.356;-2.906;2023-11-18T14:36:38;12.40;;;1.77;;
70369;SDS011;57790;51.356;-2.906;2023-11-18T14:39:38;12.47;;;1.97;;
70369;SDS011;57790;51.356;-2.906;2023-11-18T14:42:41;11.73;;;1.63;;
70369;SDS011;57790;51.356;-2.906;2023-11-18T14:45:43;10.35;;;1.50;;
70369;SDS011;57790;51.356;-2.906;2023-11-18T14:48:44;12.43;;;1.63;;
70369;SDS011;57790;51.356;-2.906;2023-11-18T14:51:46;11.00;;;1.70;;
70369;SDS011;57790;51.356;-2.906;2023-11-18T14:54:46;10.67;;;1.70;;
70369;SDS011;57790;51.356;-2.906;2023-11-18T14:57:47;12.07;;;2.33;;
70369;SDS011;57790;51.356;-2.906;2023-11-18T15:00:47;9.40;;;1.60;;
70369;SDS011;57790;51.356;-2.906;2023-11-18T15:03:48;11.37;;;2.20;;
70369;SDS011;57790;51.356;-2.906;2023-11-18T15:06:48;11.47;;;1.40;;
70369;SDS011;57790;51.356;-2.906;2023-11-18T15:09:52;11.02;;;1.77;;
70369;SDS011;57790;51.356;-2.906;2023-11-18T15:12:56;11.73;;;1.63;;
70369;SDS011;57790;51.356;-2.906;2023-11-18T15:16:00;10.20;;;1.70;;
70369;SDS011;57790;51.356;-2.906;2023-11-18T15:19:01;15.63;;;1.90;;
70369;SDS011;57790;51.356;-2.906;2023-11-18T15:22:01;10.13;;;1.70;;
70369;SDS011;57790;51.356;-2.906;2023-11-18T15:25:02;13.48;;;1.95;;
70369;SDS011;57790;51.356;-2.906;2023-11-18T15:28:03;10.57;;;1.40;;
70369;SDS011;57790;51.356;-2.906;2023-11-18T15:31:14;10.48;;;1.40;;
70369;SDS011;57790;51.356;-2.906;2023-11-18T15:34:14;13.50;;;2.10;;
70369;SDS011;57790;51.356;-2.906;2023-11-18T15:37:15;11.83;;;1.80;;
70369;SDS011;57790;51.356;-2.906;2023-11-18T15:40:15;12.83;;;1.50;;
70369;SDS011;57790;51.356;-2.906;2023-11-18T15:43:20;8.23;;;1.42;;
70369;SDS011;57790;51.356;-2.906;2023-11-18T15:46:21;13.63;;;2.13;;
70369;SDS011;57790;51.356;-2.906;2023-11-18T15:49:22;13.45;;;1.77;;
70369;SDS011;57790;51.356;-2.906;2023-11-18T15:52:23;14.00;;;1.80;;
70369;SDS011;57790;51.356;-2.906;2023-11-18T15:55:23;13.67;;;1.80;;
70369;SDS011;57790;51.356;-2.906;2023-11-18T15:58:24;13.45;;;1.90;;
70369;SDS011;57790;51.356;-2.906;2023-11-18T16:01:26;17.55;;;2.10;;
70369;SDS011;57790;51.356;-2.906;2023-11-18T16:04:26;15.57;;;1.90;;
70369;SDS011;57790;51.356;-2.906;2023-11-18T16:07:27;13.03;;;1.97;;
70369;SDS011;57790;51.356;-2.906;2023-11-18T16:10:27;15.27;;;1.80;;
70369;SDS011;57790;51.356;-2.906;2023-11-18T16:13:28;16.47;;;1.83;;
70369;SDS011;57790;51.356;-2.906;2023-11-18T16:16:28;13.52;;;1.95;;
70369;SDS011;57790;51.356;-2.906;2023-11-18T16:19:28;14.93;;;2.20;;
70369;SDS011;57790;51.356;-2.906;2023-11-18T16:22:29;19.97;;;2.07;;
70369;SDS011;57790;51.356;-2.906;2023-11-18T16:25:29;14.57;;;2.00;;
70369;SDS011;57790;51.356;-2.906;2023-11-18T16:28:30;13.53;;;1.73;;
70369;SDS011;57790;51.356;-2.906;2023-11-18T16:31:30;12.03;;;1.97;;
70369;SDS011;57790;51.356;-2.906;2023-11-18T16:34:31;13.03;;;2.07;;
70369;SDS011;57790;51.356;-2.906;2023-11-18T16:37:31;17.07;;;1.93;;
70369;SDS011;57790;51.356;-2.906;2023-11-18T16:40:31;10.17;;;1.50;;
70369;SDS011;57790;51.356;-2.906;2023-11-18T16:43:33;14.95;;;2.35;;
70369;SDS011;57790;51.356;-2.906;2023-11-18T16:46:36;15.73;;;1.73;;
70369;SDS011;57790;51.356;-2.906;2023-11-18T16:49:39;17.27;;;1.73;;
70369;SDS011;57790;51.356;-2.906;2023-11-18T16:52:40;11.07;;;1.57;;
70369;SDS011;57790;51.356;-2.906;2023-11-18T16:55:40;16.47;;;2.53;;
70369;SDS011;57790;51.356;-2.906;2023-11-18T16:58:40;12.80;;;1.70;;
70369;SDS011;57790;51.356;-2.906;2023-11-18T17:01:41;13.52;;;1.90;;
70369;SDS011;57790;51.356;-2.906;2023-11-18T17:04:41;14.03;;;2.37;;
70369;SDS011;57790;51.356;-2.906;2023-11-18T17:07:42;11.87;;;1.90;;
70369;SDS011;57790;51.356;-2.906;2023-11-18T17:10:42;15.93;;;1.77;;
70369;SDS011;57790;51.356;-2.906;2023-11-18T17:13:43;12.80;;;2.00;;
70369;SDS011;57790;51.356;-2.906;2023-11-18T17:16:44;19.27;;;2.70;;
70369;SDS011;57790;51.356;-2.906;2023-11-18T17:19:44;16.67;;;2.20;;
70369;SDS011;57790;51.356;-2.906;2023-11-18T17:22:44;13.50;;;2.10;;
70369;SDS011;57790;51.356;-2.906;2023-11-18T17:25:45;13.48;;;2.33;;
70369;SDS011;57790;51.356;-2.906;2023-11-18T17:28:45;12.50;;;1.73;;
70369;SDS011;57790;51.356;-2.906;2023-11-18T17:31:46;17.40;;;2.17;;
70369;SDS011;57790;51.356;-2.906;2023-11-18T17:34:47;13.63;;;2.07;;
70369;SDS011;57790;51.356;-2.906;2023-11-18T17:37:47;12.80;;;2.00;;
70369;SDS011;57790;51.356;-2.906;2023-11-18T17:40:47;16.37;;;2.23;;
70369;SDS011;57790;51.356;-2.906;2023-11-18T17:43:50;15.25;;;2.25;;
70369;SDS011;57790;51.356;-2.906;2023-11-18T17:46:51;16.85;;;2.20;;
70369;SDS011;57790;51.356;-2.906;2023-11-18T17:49:52;13.23;;;1.90;;
70369;SDS011;57790;51.356;-2.906;2023-11-18T17:52:53;17.95;;;2.55;;
70369;SDS011;57790;51.356;-2.906;2023-11-18T17:55:53;17.90;;;2.83;;
70369;SDS011;57790;51.356;-2.906;2023-11-18T17:58:54;16.60;;;2.60;;
70369;SDS011;57790;51.356;-2.906;2023-11-18T18:01:54;14.57;;;2.43;;
70369;SDS011;57790;51.356;-2.906;2023-11-18T18:04:54;13.27;;;2.00;;
70369;SDS011;57790;51.356;-2.906;2023-11-18T18:07:55;17.53;;;2.40;;
70369;SDS011;57790;51.356;-2.906;2023-11-18T18:10:56;16.80;;;2.40;;